sensor_id;sensor_type;location;lat;lon;timestamp;pressure;altitude;pressure_sealevel;temperature;humidity
51452;BME280;37521;52.020;-1.740;2023-08-06T00:02:01;99766.78;;;8.61;100.00
51452;BME280;37521;52.020;-1.740;2023-08-06T00:04:30;99766.25;;;8.53;100.00
51452;BME280;37521;52.020;-1.740;2023-08-06T00:07:00;99768.34;;;8.45;100.00
51452;BME280;37521;52.020;-1.740;2023-08-06T00:09:29;99765.59;;;8.48;100.00
51452;BME280;37521;52.020;-1.740;2023-08-06T00:11:58;99770.13;;;8.44;100.00
51452;BME280;37521;52.020;-1.740;2023-08-06T00:14:28;99773.69;;;8.43;100.00
51452;BME280;37521;52.020;-1.740;2023-08-06T00:16:58;99773.16;;;8.34;100.00
51452;BME280;37521;52.020;-1.740;2023-08-06T00:19:28;99771.59;;;8.30;100.00
51452;BME280;37521;52.020;-1.740;2023-08-06T00:21:57;99785.63;;;8.29;100.00
51452;BME280;37521;52.020;-1.740;2023-08-06T00:24:28;99775.41;;;8.23;100.00
51452;BME280;37521;52.020;-1.740;2023-08-06T00:26:57;99783.53;;;8.16;100.00
51452;BME280;37521;52.020;-1.740;2023-08-06T00:29:26;99779.28;;;8.12;100.00
51452;BME280;37521;52.020;-1.740;2023-08-06T00:31:55;99772.56;;;8.05;100.00
51452;BME280;37521;52.020;-1.740;2023-08-06T00:34:25;99785.72;;;8.05;100.00
51452;BME280;37521;52.020;-1.740;2023-08-06T00:36:56;99788.44;;;8.02;100.00
51452;BME280;37521;52.020;-1.740;2023-08-06T00:39:28;99784.94;;;8.03;100.00
51452;BME280;37521;52.020;-1.740;2023-08-06T00:41:58;99795.44;;;8.03;100.00
51452;BME280;37521;52.020;-1.740;2023-08-06T00:44:27;99799.09;;;7.99;100.00
51452;BME280;37521;52.020;-1.740;2023-08-06T00:46:56;99801.91;;;7.95;100.00
51452;BME280;37521;52.020;-1.740;2023-08-06T00:49:25;99806.38;;;7.92;100.00
51452;BME280;37521;52.020;-1.740;2023-08-06T00:51:55;99808.00;;;7.95;100.00
51452;BME280;37521;52.020;-1.740;2023-08-06T00:54:28;99811.69;;;7.91;100.00
51452;BME280;37521;52.020;-1.740;2023-08-06T00:56:59;99810.09;;;7.87;100.00
51452;BME280;37521;52.020;-1.740;2023-08-06T00:59:30;99811.00;;;7.86;100.00
51452;BME280;37521;52.020;-1.740;2023-08-06T01:02:00;99808.44;;;7.84;100.00
51452;BME280;37521;52.020;-1.740;2023-08-06T01:04:29;99807.69;;;7.81;100.00
51452;BME280;37521;52.020;-1.740;2023-08-06T01:07:08;99816.56;;;7.78;100.00
51452;BME280;37521;52.020;-1.740;2023-08-06T01:09:50;99814.00;;;7.77;100.00
51452;BME280;37521;52.020;-1.740;2023-08-06T01:12:32;99817.53;;;7.76;100.00
51452;BME280;37521;52.020;-1.740;2023-08-06T01:15:07;99822.91;;;7.73;100.00
51452;BME280;37521;52.020;-1.740;2023-08-06T01:17:42;99820.41;;;7.70;100.00
51452;BME280;37521;52.020;-1.740;2023-08-06T01:20:11;99823.88;;;7.70;100.00
51452;BME280;37521;52.020;-1.740;2023-08-06T01:22:41;99826.53;;;7.69;100.00
51452;BME280;37521;52.020;-1.740;2023-08-06T01:25:12;99826.53;;;7.69;100.00
51452;BME280;37521;52.020;-1.740;2023-08-06T01:27:44;99817.78;;;7.70;100.00
51452;BME280;37521;52.020;-1.740;2023-08-06T01:30:17;99824.09;;;7.64;100.00
51452;BME280;37521;52.020;-1.740;2023-08-06T01:32:50;99825.91;;;7.62;100.00
51452;BME280;37521;52.020;-1.740;2023-08-06T01:35:23;99826.91;;;7.59;100.00
51452;BME280;37521;52.020;-1.740;2023-08-06T01:37:55;99835.69;;;7.58;100.00
51452;BME280;37521;52.020;-1.740;2023-08-06T01:40:24;99846.22;;;7.58;100.00
51452;BME280;37521;52.020;-1.740;2023-08-06T01:42:56;99848.03;;;7.56;100.00
51452;BME280;37521;52.020;-1.740;2023-08-06T01:45:26;99845.56;;;7.52;100.00
51452;BME280;37521;52.020;-1.740;2023-08-06T01:47:55;99853.53;;;7.50;100.00
51452;BME280;37521;52.020;-1.740;2023-08-06T01:50:24;99852.66;;;7.50;100.00
51452;BME280;37521;52.020;-1.740;2023-08-06T01:52:54;99855.22;;;7.51;100.00
51452;BME280;37521;52.020;-1.740;2023-08-06T01:55:24;99845.66;;;7.49;100.00
51452;BME280;37521;52.020;-1.740;2023-08-06T01:57:53;99842.88;;;7.53;100.00
51452;BME280;37521;52.020;-1.740;2023-08-06T02:00:22;99854.94;;;7.59;100.00
51452;BME280;37521;52.020;-1.740;2023-08-06T02:02:50;99856.78;;;7.57;100.00
51452;BME280;37521;52.020;-1.740;2023-08-06T02:05:20;99855.16;;;7.53;100.00
51452;BME280;37521;52.020;-1.740;2023-08-06T02:07:48;99863.16;;;7.50;100.00
51452;BME280;37521;52.020;-1.740;2023-08-06T02:10:19;99854.44;;;7.49;100.00
51452;BME280;37521;52.020;-1.740;2023-08-06T02:12:49;99855.22;;;7.51;100.00
51452;BME280;37521;52.020;-1.740;2023-08-06T02:15:18;99859.63;;;7.51;100.00
51452;BME280;37521;52.020;-1.740;2023-08-06T02:17:47;99861.44;;;7.49;100.00
51452;BME280;37521;52.020;-1.740;2023-08-06T02:20:16;99867.66;;;7.46;100.00
51452;BME280;37521;52.020;-1.740;2023-08-06T02:22:46;99863.31;;;7.45;100.00
51452;BME280;37521;52.020;-1.740;2023-08-06T02:25:16;99866.03;;;7.42;100.00
51452;BME280;37521;52.020;-1.740;2023-08-06T02:27:47;99861.63;;;7.44;100.00
51452;BME280;37521;52.020;-1.740;2023-08-06T02:30:16;99858.06;;;7.45;100.00
51452;BME280;37521;52.020;-1.740;2023-08-06T02:32:45;99854.38;;;7.51;100.00
51452;BME280;37521;52.020;-1.740;2023-08-06T02:35:14;99856.03;;;7.53;100.00
51452;BME280;37521;52.020;-1.740;2023-08-06T02:37:43;99858.72;;;7.52;100.00
51452;BME280;37521;52.020;-1.740;2023-08-06T02:40:12;99865.63;;;7.54;100.00
51452;BME280;37521;52.020;-1.740;2023-08-06T02:42:41;99867.31;;;7.55;100.00
51452;BME280;37521;52.020;-1.740;2023-08-06T02:45:12;99869.06;;;7.56;100.00
51452;BME280;37521;52.020;-1.740;2023-08-06T02:47:41;99860.13;;;7.60;100.00
51452;BME280;37521;52.020;-1.740;2023-08-06T02:50:10;99857.41;;;7.63;100.00
51452;BME280;37521;52.020;-1.740;2023-08-06T02:52:39;99859.00;;;7.68;100.00
51452;BME280;37521;52.020;-1.740;2023-08-06T02:55:10;99853.66;;;7.71;100.00
51452;BME280;37521;52.020;-1.740;2023-08-06T02:57:42;99859.69;;;7.73;100.00
51452;BME280;37521;52.020;-1.740;2023-08-06T03:00:14;99865.72;;;7.76;100.00
51452;BME280;37521;52.020;-1.740;2023-08-06T03:02:43;99858.53;;;7.80;100.00
51452;BME280;37521;52.020;-1.740;2023-08-06T03:05:24;99862.59;;;7.88;100.00
51452;BME280;37521;52.020;-1.740;2023-08-06T03:07:54;99862.34;;;7.96;100.00
51452;BME280;37521;52.020;-1.740;2023-08-06T03:10:26;99863.91;;;8.00;100.00
51452;BME280;37521;52.020;-1.740;2023-08-06T03:12:59;99856.81;;;8.02;100.00
51452;BME280;37521;52.020;-1.740;2023-08-06T03:15:29;99858.50;;;8.05;100.00
51452;BME280;37521;52.020;-1.740;2023-08-06T03:17:58;99858.41;;;8.06;100.00
51452;BME280;37521;52.020;-1.740;2023-08-06T03:20:28;99853.16;;;8.06;100.00
51452;BME280;37521;52.020;-1.740;2023-08-06T03:22:57;99857.44;;;8.09;100.00
51452;BME280;37521;52.020;-1.740;2023-08-06T03:25:28;99851.28;;;8.10;100.00
51452;BME280;37521;52.020;-1.740;2023-08-06T03:27:58;99852.94;;;8.12;100.00
51452;BME280;37521;52.020;-1.740;2023-08-06T03:30:29;99850.13;;;8.17;100.00
51452;BME280;37521;52.020;-1.740;2023-08-06T03:32:58;99857.09;;;8.18;100.00
51452;BME280;37521;52.020;-1.740;2023-08-06T03:35:27;99852.56;;;8.22;100.00
51452;BME280;37521;52.020;-1.740;2023-08-06T03:37:57;99855.09;;;8.25;100.00
51452;BME280;37521;52.020;-1.740;2023-08-06T03:40:27;99848.91;;;8.26;100.00
51452;BME280;37521;52.020;-1.740;2023-08-06T03:42:58;99856.66;;;8.29;100.00
51452;BME280;37521;52.020;-1.740;2023-08-06T03:45:28;99855.63;;;8.33;100.00
51452;BME280;37521;52.020;-1.740;2023-08-06T03:47:57;99861.63;;;8.38;100.00
51452;BME280;37521;52.020;-1.740;2023-08-06T03:50:26;99852.00;;;8.37;100.00
51452;BME280;37521;52.020;-1.740;2023-08-06T03:52:55;99858.97;;;8.38;100.00
51452;BME280;37521;52.020;-1.740;2023-08-06T03:55:24;99853.59;;;8.41;100.00
51452;BME280;37521;52.020;-1.740;2023-08-06T03:57:54;99858.00;;;8.40;100.00
51452;BME280;37521;52.020;-1.740;2023-08-06T04:00:22;99858.84;;;8.41;100.00
51452;BME280;37521;52.020;-1.740;2023-08-06T04:02:54;99856.16;;;8.42;100.00
51452;BME280;37521;52.020;-1.740;2023-08-06T04:05:26;99860.56;;;8.42;100.00
51452;BME280;37521;52.020;-1.740;2023-08-06T04:07:58;99860.69;;;8.39;100.00
51452;BME280;37521;52.020;-1.740;2023-08-06T04:10:27;99862.41;;;8.40;100.00
51452;BME280;37521;52.020;-1.740;2023-08-06T04:12:56;99871.22;;;8.39;100.00
51452;BME280;37521;52.020;-1.740;2023-08-06T04:15:25;99868.72;;;8.34;100.00
51452;BME280;37521;52.020;-1.740;2023-08-06T04:17:56;99872.28;;;8.33;100.00
51452;BME280;37521;52.020;-1.740;2023-08-06T04:20:25;99878.53;;;8.31;100.00
51452;BME280;37521;52.020;-1.740;2023-08-06T04:22:54;99875.97;;;8.29;100.00
51452;BME280;37521;52.020;-1.740;2023-08-06T04:25:23;99876.00;;;8.28;100.00
51452;BME280;37521;52.020;-1.740;2023-08-06T04:27:52;99884.03;;;8.25;100.00
51452;BME280;37521;52.020;-1.740;2023-08-06T04:30:22;99889.50;;;8.18;100.00
51452;BME280;37521;52.020;-1.740;2023-08-06T04:32:51;99888.81;;;8.13;100.00
51452;BME280;37521;52.020;-1.740;2023-08-06T04:35:22;99889.00;;;8.09;100.00
51452;BME280;37521;52.020;-1.740;2023-08-06T04:37:51;99890.81;;;8.07;100.00
51452;BME280;37521;52.020;-1.740;2023-08-06T04:40:21;99891.06;;;8.01;100.00
51452;BME280;37521;52.020;-1.740;2023-08-06T04:42:50;99891.28;;;7.95;100.00
51452;BME280;37521;52.020;-1.740;2023-08-06T04:45:19;99894.97;;;7.90;100.00
51452;BME280;37521;52.020;-1.740;2023-08-06T04:47:48;99901.94;;;7.91;100.00
51452;BME280;37521;52.020;-1.740;2023-08-06T04:50:17;99906.22;;;7.94;100.00
51452;BME280;37521;52.020;-1.740;2023-08-06T04:52:48;99909.66;;;7.96;100.00
51452;BME280;37521;52.020;-1.740;2023-08-06T04:55:17;99914.16;;;7.92;100.00
51452;BME280;37521;52.020;-1.740;2023-08-06T04:57:46;99911.59;;;7.91;100.00
51452;BME280;37521;52.020;-1.740;2023-08-06T05:00:15;99917.81;;;7.88;100.00
51452;BME280;37521;52.020;-1.740;2023-08-06T05:02:44;99913.41;;;7.89;100.00
51452;BME280;37521;52.020;-1.740;2023-08-06T05:05:13;99917.78;;;7.90;100.00
51452;BME280;37521;52.020;-1.740;2023-08-06T05:07:45;99914.22;;;7.91;100.00
51452;BME280;37521;52.020;-1.740;2023-08-06T05:10:17;99918.50;;;7.93;100.00
51452;BME280;37521;52.020;-1.740;2023-08-06T05:12:46;99928.00;;;7.98;100.00
51452;BME280;37521;52.020;-1.740;2023-08-06T05:15:15;99922.69;;;7.99;100.00
51452;BME280;37521;52.020;-1.740;2023-08-06T05:17:44;99917.34;;;8.01;100.00
51452;BME280;37521;52.020;-1.740;2023-08-06T05:20:13;99927.88;;;8.01;100.00
51452;BME280;37521;52.020;-1.740;2023-08-06T05:22:44;99929.47;;;8.05;100.00
51452;BME280;37521;52.020;-1.740;2023-08-06T05:25:14;99928.50;;;8.07;100.00
51452;BME280;37521;52.020;-1.740;2023-08-06T05:27:45;99940.06;;;8.03;100.00
51452;BME280;37521;52.020;-1.740;2023-08-06T05:30:16;99928.72;;;8.01;100.00
51452;BME280;37521;52.020;-1.740;2023-08-06T05:32:45;99928.84;;;7.98;100.00
51452;BME280;37521;52.020;-1.740;2023-08-06T05:35:14;99933.34;;;7.95;100.00
51452;BME280;37521;52.020;-1.740;2023-08-06T05:37:43;99935.13;;;7.94;100.00
51452;BME280;37521;52.020;-1.740;2023-08-06T05:40:14;99931.75;;;7.90;100.00
51452;BME280;37521;52.020;-1.740;2023-08-06T05:42:49;99932.50;;;7.94;100.00
51452;BME280;37521;52.020;-1.740;2023-08-06T05:45:21;99938.56;;;7.96;100.00
51452;BME280;37521;52.020;-1.740;2023-08-06T05:47:50;99931.56;;;7.95;100.00
51452;BME280;37521;52.020;-1.740;2023-08-06T05:50:21;99932.41;;;7.97;100.00
51452;BME280;37521;52.020;-1.740;2023-08-06T05:52:50;99931.47;;;7.98;100.00
51452;BME280;37521;52.020;-1.740;2023-08-06T05:55:20;99939.38;;;7.98;100.00
51452;BME280;37521;52.020;-1.740;2023-08-06T05:57:50;99944.50;;;8.01;100.00
51452;BME280;37521;52.020;-1.740;2023-08-06T06:00:22;99948.03;;;8.00;100.00
51452;BME280;37521;52.020;-1.740;2023-08-06T06:02:51;99942.78;;;8.00;100.00
51452;BME280;37521;52.020;-1.740;2023-08-06T06:05:20;99941.78;;;8.04;100.00
51452;BME280;37521;52.020;-1.740;2023-08-06T06:07:49;99952.06;;;8.10;100.00
51452;BME280;37521;52.020;-1.740;2023-08-06T06:10:19;99953.72;;;8.13;100.00
51452;BME280;37521;52.020;-1.740;2023-08-06T06:12:50;99959.81;;;8.13;100.00
51452;BME280;37521;52.020;-1.740;2023-08-06T06:15:19;99964.28;;;8.11;100.00
51452;BME280;37521;52.020;-1.740;2023-08-06T06:17:48;99959.66;;;8.18;100.00
51452;BME280;37521;52.020;-1.740;2023-08-06T06:20:17;99965.78;;;8.18;100.00
51452;BME280;37521;52.020;-1.740;2023-08-06T06:22:46;99963.78;;;8.25;100.00
51452;BME280;37521;52.020;-1.740;2023-08-06T06:25:15;99970.69;;;8.28;100.00
51452;BME280;37521;52.020;-1.740;2023-08-06T06:27:44;99968.66;;;8.36;100.00
51452;BME280;37521;52.020;-1.740;2023-08-06T06:30:16;99965.94;;;8.39;100.00
51452;BME280;37521;52.020;-1.740;2023-08-06T06:32:46;99963.34;;;8.37;100.00
51452;BME280;37521;52.020;-1.740;2023-08-06T06:35:21;99973.88;;;8.37;100.00
51452;BME280;37521;52.020;-1.740;2023-08-06T06:37:56;99975.59;;;8.38;100.00
51452;BME280;37521;52.020;-1.740;2023-08-06T06:40:25;99983.47;;;8.38;100.00
51452;BME280;37521;52.020;-1.740;2023-08-06T06:42:54;99983.41;;;8.40;100.00
51452;BME280;37521;52.020;-1.740;2023-08-06T06:45:27;99984.28;;;8.40;100.00
51452;BME280;37521;52.020;-1.740;2023-08-06T06:47:59;99988.59;;;8.43;100.00
51452;BME280;37521;52.020;-1.740;2023-08-06T06:50:28;99985.03;;;8.44;100.00
51452;BME280;37521;52.020;-1.740;2023-08-06T06:52:57;99989.25;;;8.48;100.00
51452;BME280;37521;52.020;-1.740;2023-08-06T06:55:26;99984.66;;;8.53;100.00
51452;BME280;37521;52.020;-1.740;2023-08-06T06:57:55;99989.69;;;8.59;100.00
51452;BME280;37521;52.020;-1.740;2023-08-06T07:00:27;100004.41;;;8.65;100.00
51452;BME280;37521;52.020;-1.740;2023-08-06T07:02:56;100009.53;;;8.68;100.00
51452;BME280;37521;52.020;-1.740;2023-08-06T07:05:25;100010.16;;;8.74;100.00
51452;BME280;37521;52.020;-1.740;2023-08-06T07:07:54;100019.34;;;8.86;100.00
51452;BME280;37521;52.020;-1.740;2023-08-06T07:10:23;100022.63;;;8.93;100.00
51452;BME280;37521;52.020;-1.740;2023-08-06T07:13:08;100019.56;;;9.04;100.00
51452;BME280;37521;52.020;-1.740;2023-08-06T07:15:53;100015.81;;;9.09;100.00
51452;BME280;37521;52.020;-1.740;2023-08-06T07:18:45;100024.16;;;9.20;100.00
51452;BME280;37521;52.020;-1.740;2023-08-06T07:21:18;100025.59;;;9.27;100.00
51452;BME280;37521;52.020;-1.740;2023-08-06T07:23:49;100036.69;;;9.36;100.00
51452;BME280;37521;52.020;-1.740;2023-08-06T07:26:21;100023.41;;;9.39;100.00
51452;BME280;37521;52.020;-1.740;2023-08-06T07:28:53;100033.88;;;9.40;100.00
51452;BME280;37521;52.020;-1.740;2023-08-06T07:31:39;100040.66;;;9.46;100.00
51452;BME280;37521;52.020;-1.740;2023-08-06T07:34:17;100037.91;;;9.49;100.00
51452;BME280;37521;52.020;-1.740;2023-08-06T07:36:49;100033.44;;;9.51;100.00
51452;BME280;37521;52.020;-1.740;2023-08-06T07:39:19;100039.50;;;9.53;100.00
51452;BME280;37521;52.020;-1.740;2023-08-06T07:41:55;100042.28;;;9.50;100.00
51452;BME280;37521;52.020;-1.740;2023-08-06T07:44:25;100045.81;;;9.49;100.00
51452;BME280;37521;52.020;-1.740;2023-08-06T07:46:58;100048.50;;;9.47;100.00
51452;BME280;37521;52.020;-1.740;2023-08-06T07:49:32;100056.25;;;9.52;100.00
51452;BME280;37521;52.020;-1.740;2023-08-06T07:52:19;100052.53;;;9.56;100.00
51452;BME280;37521;52.020;-1.740;2023-08-06T07:55:05;100062.03;;;9.60;100.00
51452;BME280;37521;52.020;-1.740;2023-08-06T07:57:37;100055.72;;;9.64;100.00
51452;BME280;37521;52.020;-1.740;2023-08-06T08:00:11;100055.34;;;9.73;100.00
51452;BME280;37521;52.020;-1.740;2023-08-06T08:02:48;100052.00;;;9.90;100.00
51452;BME280;37521;52.020;-1.740;2023-08-06T08:05:20;100045.97;;;10.07;100.00
51452;BME280;37521;52.020;-1.740;2023-08-06T08:07:49;100045.38;;;10.21;100.00
51452;BME280;37521;52.020;-1.740;2023-08-06T08:10:18;100047.31;;;10.38;100.00
51452;BME280;37521;52.020;-1.740;2023-08-06T08:12:48;100044.91;;;10.52;100.00
51452;BME280;37521;52.020;-1.740;2023-08-06T08:15:19;100050.41;;;10.66;100.00
51452;BME280;37521;52.020;-1.740;2023-08-06T08:17:55;100056.97;;;10.76;100.00
51452;BME280;37521;52.020;-1.740;2023-08-06T08:20:25;100053.75;;;10.88;100.00
51452;BME280;37521;52.020;-1.740;2023-08-06T08:22:59;100051.47;;;11.00;100.00
51452;BME280;37521;52.020;-1.740;2023-08-06T08:25:29;100050.72;;;11.15;100.00
51452;BME280;37521;52.020;-1.740;2023-08-06T08:28:04;100054.19;;;11.17;100.00
51452;BME280;37521;52.020;-1.740;2023-08-06T08:30:40;100053.25;;;11.18;100.00
51452;BME280;37521;52.020;-1.740;2023-08-06T08:33:12;100049.59;;;11.21;100.00
51452;BME280;37521;52.020;-1.740;2023-08-06T08:35:43;100059.94;;;11.25;100.00
51452;BME280;37521;52.020;-1.740;2023-08-06T08:38:14;100059.00;;;11.26;100.00
51452;BME280;37521;52.020;-1.740;2023-08-06T08:40:46;100063.84;;;11.35;100.00
51452;BME280;37521;52.020;-1.740;2023-08-06T08:43:15;100065.25;;;11.42;100.00
51452;BME280;37521;52.020;-1.740;2023-08-06T08:45:47;100068.91;;;11.40;100.00
51452;BME280;37521;52.020;-1.740;2023-08-06T08:48:26;100066.34;;;11.38;100.00
51452;BME280;37521;52.020;-1.740;2023-08-06T08:50:56;100072.56;;;11.37;100.00
51452;BME280;37521;52.020;-1.740;2023-08-06T08:53:28;100068.69;;;11.44;100.00
51452;BME280;37521;52.020;-1.740;2023-08-06T08:56:00;100076.34;;;11.51;100.00
51452;BME280;37521;52.020;-1.740;2023-08-06T08:58:36;100072.44;;;11.58;100.00
51452;BME280;37521;52.020;-1.740;2023-08-06T09:01:07;100074.81;;;11.64;100.00
51452;BME280;37521;52.020;-1.740;2023-08-06T09:03:39;100067.47;;;11.69;100.00
51452;BME280;37521;52.020;-1.740;2023-08-06T09:06:09;100067.47;;;11.69;100.00
51452;BME280;37521;52.020;-1.740;2023-08-06T09:08:43;100077.28;;;11.67;100.00
51452;BME280;37521;52.020;-1.740;2023-08-06T09:11:16;100064.34;;;11.61;100.00
51452;BME280;37521;52.020;-1.740;2023-08-06T09:13:46;100071.22;;;11.65;100.00
51452;BME280;37521;52.020;-1.740;2023-08-06T09:16:16;100066.53;;;11.70;100.00
51452;BME280;37521;52.020;-1.740;2023-08-06T09:18:52;100058.16;;;11.79;100.00
51452;BME280;37521;52.020;-1.740;2023-08-06T09:21:25;100066.44;;;11.90;100.00
51452;BME280;37521;52.020;-1.740;2023-08-06T09:24:13;100067.97;;;11.94;100.00
51452;BME280;37521;52.020;-1.740;2023-08-06T09:26:51;100066.09;;;11.96;100.00
51452;BME280;37521;52.020;-1.740;2023-08-06T09:29:20;100077.56;;;11.97;100.00
51452;BME280;37521;52.020;-1.740;2023-08-06T09:31:50;100081.03;;;11.80;100.00
51452;BME280;37521;52.020;-1.740;2023-08-06T09:34:23;100093.53;;;11.59;100.00
51452;BME280;37521;52.020;-1.740;2023-08-06T09:36:53;100084.41;;;11.48;100.00
51452;BME280;37521;52.020;-1.740;2023-08-06T09:39:26;100094.97;;;11.48;100.00
51452;BME280;37521;52.020;-1.740;2023-08-06T09:41:57;100085.69;;;11.58;100.00
51452;BME280;37521;52.020;-1.740;2023-08-06T09:44:30;100097.06;;;11.77;100.00
51452;BME280;37521;52.020;-1.740;2023-08-06T09:47:00;100099.44;;;12.00;100.00
51452;BME280;37521;52.020;-1.740;2023-08-06T09:49:55;100096.78;;;12.18;100.00
51452;BME280;37521;52.020;-1.740;2023-08-06T09:52:31;100095.53;;;12.25;100.00
51452;BME280;37521;52.020;-1.740;2023-08-06T09:55:00;100102.66;;;12.40;100.00
51452;BME280;37521;52.020;-1.740;2023-08-06T09:57:31;100102.13;;;12.51;100.00
51452;BME280;37521;52.020;-1.740;2023-08-06T10:00:01;100096.56;;;12.55;100.00
51452;BME280;37521;52.020;-1.740;2023-08-06T10:02:53;100100.00;;;12.58;100.00
51452;BME280;37521;52.020;-1.740;2023-08-06T10:05:25;100099.50;;;12.67;100.00
51452;BME280;37521;52.020;-1.740;2023-08-06T10:07:55;100100.25;;;12.69;100.00
51452;BME280;37521;52.020;-1.740;2023-08-06T10:10:28;100098.72;;;12.65;100.00
51452;BME280;37521;52.020;-1.740;2023-08-06T10:13:03;100101.22;;;12.68;100.00
51452;BME280;37521;52.020;-1.740;2023-08-06T10:15:41;100095.88;;;12.85;100.00
51452;BME280;37521;52.020;-1.740;2023-08-06T10:18:15;100096.13;;;12.96;100.00
51452;BME280;37521;52.020;-1.740;2023-08-06T10:20:55;100093.13;;;13.02;100.00
51452;BME280;37521;52.020;-1.740;2023-08-06T10:23:34;100088.09;;;13.14;100.00
51452;BME280;37521;52.020;-1.740;2023-08-06T10:26:06;100102.13;;;13.16;100.00
51452;BME280;37521;52.020;-1.740;2023-08-06T10:28:37;100100.41;;;13.15;100.00
51452;BME280;37521;52.020;-1.740;2023-08-06T10:31:07;100097.16;;;13.09;100.00
51452;BME280;37521;52.020;-1.740;2023-08-06T10:33:44;100095.34;;;13.10;100.00
51452;BME280;37521;52.020;-1.740;2023-08-06T10:36:16;100105.44;;;13.03;100.00
51452;BME280;37521;52.020;-1.740;2023-08-06T10:38:50;100105.63;;;12.85;100.00
51452;BME280;37521;52.020;-1.740;2023-08-06T10:41:23;100113.19;;;12.75;100.00
51452;BME280;37521;52.020;-1.740;2023-08-06T10:44:05;100110.63;;;12.73;100.00
51452;BME280;37521;52.020;-1.740;2023-08-06T10:46:36;100093.28;;;12.83;100.00
51452;BME280;37521;52.020;-1.740;2023-08-06T10:49:07;100101.69;;;13.07;100.00
51452;BME280;37521;52.020;-1.740;2023-08-06T10:51:38;100096.81;;;13.16;100.00
51452;BME280;37521;52.020;-1.740;2023-08-06T10:54:14;100095.50;;;13.24;100.00
51452;BME280;37521;52.020;-1.740;2023-08-06T10:56:51;100098.47;;;13.34;100.00
51452;BME280;37521;52.020;-1.740;2023-08-06T10:59:24;100090.00;;;13.59;100.00
51452;BME280;37521;52.020;-1.740;2023-08-06T11:01:55;100089.00;;;13.76;100.00
51452;BME280;37521;52.020;-1.740;2023-08-06T11:04:30;100086.41;;;13.60;100.00
51452;BME280;37521;52.020;-1.740;2023-08-06T11:07:07;100090.00;;;13.43;100.00
51452;BME280;37521;52.020;-1.740;2023-08-06T11:09:38;100093.56;;;13.74;100.00
51452;BME280;37521;52.020;-1.740;2023-08-06T11:12:09;100088.34;;;14.02;100.00
51452;BME280;37521;52.020;-1.740;2023-08-06T11:14:42;100088.00;;;14.23;100.00
51452;BME280;37521;52.020;-1.740;2023-08-06T11:17:12;100083.16;;;14.59;100.00
51452;BME280;37521;52.020;-1.740;2023-08-06T11:19:41;100066.50;;;14.84;100.00
51452;BME280;37521;52.020;-1.740;2023-08-06T11:22:14;100071.53;;;15.03;100.00
51452;BME280;37521;52.020;-1.740;2023-08-06T11:24:45;100072.66;;;15.13;100.00
51452;BME280;37521;52.020;-1.740;2023-08-06T11:27:15;100059.41;;;15.26;100.00
51452;BME280;37521;52.020;-1.740;2023-08-06T11:29:45;100061.97;;;15.27;100.00
51452;BME280;37521;52.020;-1.740;2023-08-06T11:32:15;100071.44;;;15.46;100.00
51452;BME280;37521;52.020;-1.740;2023-08-06T11:34:45;100076.44;;;15.77;100.00
51452;BME280;37521;52.020;-1.740;2023-08-06T11:37:23;100063.53;;;15.98;100.00
51452;BME280;37521;52.020;-1.740;2023-08-06T11:39:55;100060.66;;;16.14;100.00
51452;BME280;37521;52.020;-1.740;2023-08-06T11:42:31;100068.50;;;16.03;100.00
51452;BME280;37521;52.020;-1.740;2023-08-06T11:45:06;100067.16;;;15.70;100.00
51452;BME280;37521;52.020;-1.740;2023-08-06T11:47:38;100058.69;;;15.37;100.00
51452;BME280;37521;52.020;-1.740;2023-08-06T11:50:23;100069.50;;;15.21;100.00
51452;BME280;37521;52.020;-1.740;2023-08-06T11:53:06;100074.16;;;15.17;100.00
51452;BME280;37521;52.020;-1.740;2023-08-06T11:55:47;100073.69;;;15.25;100.00
51452;BME280;37521;52.020;-1.740;2023-08-06T11:58:29;100077.81;;;15.29;100.00
51452;BME280;37521;52.020;-1.740;2023-08-06T12:00:59;100083.34;;;15.26;100.00
51452;BME280;37521;52.020;-1.740;2023-08-06T12:03:30;100085.59;;;15.05;100.00
51452;BME280;37521;52.020;-1.740;2023-08-06T12:06:12;100091.75;;;14.77;100.00
51452;BME280;37521;52.020;-1.740;2023-08-06T12:08:55;100094.88;;;14.41;100.00
51452;BME280;37521;52.020;-1.740;2023-08-06T12:11:29;100096.06;;;14.21;100.00
51452;BME280;37521;52.020;-1.740;2023-08-06T12:14:21;100104.03;;;14.21;100.00
51452;BME280;37521;52.020;-1.740;2023-08-06T12:17:12;100102.22;;;14.22;100.00
51452;BME280;37521;52.020;-1.740;2023-08-06T12:19:55;100097.09;;;14.04;100.00
51452;BME280;37521;52.020;-1.740;2023-08-06T12:22:32;100089.91;;;14.21;100.00
51452;BME280;37521;52.020;-1.740;2023-08-06T12:25:06;100088.25;;;14.48;100.00
51452;BME280;37521;52.020;-1.740;2023-08-06T12:27:41;100088.25;;;14.91;100.00
51452;BME280;37521;52.020;-1.740;2023-08-06T12:30:11;100090.16;;;15.30;100.00
51452;BME280;37521;52.020;-1.740;2023-08-06T12:32:41;100082.16;;;15.03;100.00
51452;BME280;37521;52.020;-1.740;2023-08-06T12:35:12;100096.94;;;14.36;100.00
51452;BME280;37521;52.020;-1.740;2023-08-06T12:37:41;100123.91;;;13.84;100.00
51452;BME280;37521;52.020;-1.740;2023-08-06T12:40:16;100099.84;;;13.41;100.00
51452;BME280;37521;52.020;-1.740;2023-08-06T12:43:03;100099.56;;;12.98;100.00
51452;BME280;37521;52.020;-1.740;2023-08-06T12:45:37;100114.84;;;12.77;100.00
51452;BME280;37521;52.020;-1.740;2023-08-06T12:48:06;100122.50;;;12.66;100.00
51452;BME280;37521;52.020;-1.740;2023-08-06T12:50:35;100126.13;;;12.64;100.00
51452;BME280;37521;52.020;-1.740;2023-08-06T12:53:07;100120.84;;;12.64;100.00
51452;BME280;37521;52.020;-1.740;2023-08-06T12:55:45;100122.56;;;12.65;100.00
51452;BME280;37521;52.020;-1.740;2023-08-06T12:58:21;100115.41;;;12.67;100.00
51452;BME280;37521;52.020;-1.740;2023-08-06T13:00:58;100119.00;;;12.66;100.00
51452;BME280;37521;52.020;-1.740;2023-08-06T13:03:39;100113.84;;;12.63;100.00
51452;BME280;37521;52.020;-1.740;2023-08-06T13:06:16;100116.00;;;12.72;100.00